Time;durP1;ratioP1;P1;durP2;ratioP2;P2;SDS_P1;SDS_P2;PMS_P1;PMS_P2;Temp;Humidity;BMP_temperature;BMP_pressure;BME280_temperature;BME280_humidity;BME280_pressure;Samples;Min_cycle;Max_cycle;Signal;HPM_P1;HPM_P2
2024/02/16 00:02:18;;;;;;;7.30;1.48;;;11.30;99.90;;;;;;4993779;28;20037;-90
2024/02/16 00:04:44;;;;;;;4.57;1.17;;;11.30;99.90;;;;;;4982434;28;20034;-91
2024/02/16 00:07:09;;;;;;;8.40;1.30;;;11.30;99.90;;;;;;4978975;28;20023;-90
2024/02/16 00:09:35;;;;;;;7.45;1.52;;;11.20;99.90;;;;;;4978887;28;20034;-90
2024/02/16 00:12:01;;;;;;;6.28;1.33;;;11.30;99.90;;;;;;4978054;28;20046;-90
2024/02/16 00:14:26;;;;;;;4.82;1.10;;;11.20;99.90;;;;;;4978989;28;20084;-91
2024/02/16 00:16:52;;;;;;;3.90;1.08;;;11.20;99.90;;;;;;4978474;28;20061;-91
2024/02/16 00:19:18;;;;;;;3.65;1.25;;;11.20;99.90;;;;;;4978577;28;20030;-91
2024/02/16 00:21:43;;;;;;;4.82;1.20;;;11.10;99.90;;;;;;4978813;28;20022;-90
2024/02/16 00:24:09;;;;;;;3.67;1.13;;;11.10;99.90;;;;;;4977686;28;20093;-89
2024/02/16 00:26:36;;;;;;;5.53;1.50;;;11.00;99.90;;;;;;4978448;28;20383;-91
2024/02/16 00:29:02;;;;;;;3.67;1.48;;;11.00;99.90;;;;;;4974981;28;20029;-91
2024/02/16 00:31:27;;;;;;;4.53;1.63;;;11.00;99.90;;;;;;4992381;28;20121;-90
2024/02/16 00:33:53;;;;;;;7.88;1.23;;;10.90;99.90;;;;;;4978024;28;20474;-91
2024/02/16 00:36:18;;;;;;;5.25;1.58;;;10.90;99.90;;;;;;4978021;28;20441;-90
2024/02/16 00:38:44;;;;;;;7.30;1.60;;;10.90;99.90;;;;;;4995374;28;20083;-90
2024/02/16 00:41:21;;;;;;;5.50;1.27;;;10.90;99.90;;;;;;4994742;28;20050;-91
2024/02/16 00:43:47;;;;;;;3.58;1.33;;;10.80;99.90;;;;;;4995178;28;20305;-91
2024/02/16 00:46:12;;;;;;;7.38;2.28;;;10.80;99.90;;;;;;4978116;28;20042;-91
2024/02/16 00:48:38;;;;;;;3.88;1.85;;;10.80;99.90;;;;;;4978187;28;20399;-90
2024/02/16 00:51:04;;;;;;;5.60;1.63;;;10.80;99.90;;;;;;4977816;28;20040;-90
2024/02/16 00:53:29;;;;;;;8.50;1.27;;;10.80;99.90;;;;;;4977706;28;20027;-90
2024/02/16 00:55:55;;;;;;;3.63;1.10;;;10.80;99.90;;;;;;4974114;28;20019;-90
2024/02/16 00:58:21;;;;;;;3.90;1.33;;;10.70;99.90;;;;;;4976719;28;20026;-91
2024/02/16 01:00:47;;;;;;;4.78;1.33;;;10.70;99.90;;;;;;4966631;28;20018;-91
2024/02/16 01:03:13;;;;;;;3.95;1.50;;;10.70;99.90;;;;;;4984164;28;20053;-90
2024/02/16 01:05:40;;;;;;;3.95;1.33;;;10.70;99.90;;;;;;4981422;28;20038;-91
2024/02/16 01:08:06;;;;;;;3.28;1.20;;;10.80;99.90;;;;;;4981160;28;20061;-91
2024/02/16 01:10:32;;;;;;;4.28;1.33;;;10.70;99.90;;;;;;4981666;28;20023;-91
2024/02/16 01:12:58;;;;;;;7.65;1.30;;;10.80;99.90;;;;;;4980539;28;20113;-90
2024/02/16 01:15:23;;;;;;;7.13;1.30;;;10.80;99.90;;;;;;4978630;28;20031;-90
2024/02/16 01:17:49;;;;;;;5.60;1.40;;;10.80;99.90;;;;;;4981254;28;20046;-90
2024/02/16 01:20:15;;;;;;;3.60;1.40;;;10.80;99.90;;;;;;4981486;28;20485;-91
2024/02/16 01:22:41;;;;;;;4.70;1.00;;;10.80;99.90;;;;;;4981944;28;20052;-90
2024/02/16 01:25:10;;;;;;;5.97;1.17;;;10.80;99.90;;;;;;4981069;28;20034;-90
2024/02/16 01:27:36;;;;;;;5.80;1.50;;;10.80;99.90;;;;;;4974194;28;20364;-91
2024/02/16 01:30:02;;;;;;;3.90;1.42;;;10.80;99.90;;;;;;4981706;28;20057;-90
2024/02/16 01:32:28;;;;;;;5.15;1.30;;;10.70;99.90;;;;;;4980530;28;20094;-91
2024/02/16 01:34:54;;;;;;;2.92;1.02;;;10.80;99.90;;;;;;4977978;28;20105;-90
2024/02/16 01:37:19;;;;;;;4.25;1.10;;;10.80;99.90;;;;;;4981330;28;20123;-91
2024/02/16 01:39:45;;;;;;;5.10;1.40;;;10.80;99.90;;;;;;4985112;28;20122;-90
2024/02/16 01:42:12;;;;;;;3.85;1.38;;;10.70;99.90;;;;;;4997283;28;20486;-90
2024/02/16 01:44:38;;;;;;;3.15;1.30;;;10.70;99.90;;;;;;4996429;28;20450;-91
2024/02/16 01:47:04;;;;;;;5.80;1.48;;;10.70;99.90;;;;;;4997229;28;20034;-91
2024/02/16 01:49:30;;;;;;;3.70;1.10;;;10.70;99.90;;;;;;4997050;28;20022;-90
2024/02/16 01:51:56;;;;;;;4.60;1.30;;;10.70;99.90;;;;;;4996990;28;20081;-91
2024/02/16 01:54:22;;;;;;;4.18;1.48;;;10.70;99.90;;;;;;4996910;28;20494;-90
2024/02/16 01:56:48;;;;;;;12.98;5.20;;;10.70;99.90;;;;;;4996086;28;20026;-91
2024/02/16 01:59:14;;;;;;;5.60;2.28;;;10.70;99.90;;;;;;4997502;28;20037;-90
2024/02/16 02:01:40;;;;;;;5.95;1.95;;;10.70;99.90;;;;;;4996779;28;20019;-90
2024/02/16 02:04:06;;;;;;;3.40;1.63;;;10.70;99.90;;;;;;4996325;28;20038;-90
2024/02/16 02:06:31;;;;;;;5.53;1.50;;;10.70;99.90;;;;;;4996327;28;20038;-91
2024/02/16 02:08:57;;;;;;;5.00;1.50;;;10.70;99.90;;;;;;4991709;28;20030;-90
2024/02/16 02:11:23;;;;;;;3.58;1.35;;;10.70;99.90;;;;;;4989784;28;20027;-91
2024/02/16 02:13:48;;;;;;;4.20;1.30;;;10.80;99.90;;;;;;4985013;28;20041;-90
2024/02/16 02:16:16;;;;;;;6.97;1.80;;;10.70;99.90;;;;;;4990080;28;20027;-90
2024/02/16 02:18:43;;;;;;;10.07;1.90;;;10.80;99.90;;;;;;5000986;28;20034;-90
2024/02/16 02:21:09;;;;;;;3.20;1.40;;;10.80;99.90;;;;;;5017639;28;20027;-90
2024/02/16 02:23:35;;;;;;;4.75;1.67;;;10.80;99.90;;;;;;5007914;28;20037;-91
2024/02/16 02:26:01;;;;;;;3.30;1.15;;;10.80;99.90;;;;;;5002146;28;20035;-91
2024/02/16 02:28:27;;;;;;;3.03;1.20;;;10.80;99.90;;;;;;4996921;28;20121;-90
2024/02/16 02:30:53;;;;;;;5.18;1.23;;;10.80;99.90;;;;;;4995887;28;20454;-90
2024/02/16 02:33:19;;;;;;;7.88;1.70;;;10.90;99.90;;;;;;5019124;28;20058;-90
2024/02/16 02:35:46;;;;;;;5.15;1.45;;;10.90;99.90;;;;;;5011642;28;20054;-90
2024/02/16 02:38:12;;;;;;;4.90;1.75;;;10.90;99.90;;;;;;4989194;28;20022;-90
2024/02/16 02:40:38;;;;;;;11.75;1.92;;;10.80;99.90;;;;;;4974679;28;20055;-90
2024/02/16 02:43:03;;;;;;;5.57;1.25;;;10.80;99.90;;;;;;4960207;28;20038;-90
2024/02/16 02:45:29;;;;;;;3.63;1.75;;;10.80;99.90;;;;;;4948567;28;20045;-90
2024/02/16 02:47:55;;;;;;;4.50;1.67;;;10.80;99.90;;;;;;4958116;28;20023;-90
2024/02/16 02:50:20;;;;;;;7.53;2.03;;;10.70;99.90;;;;;;4961089;28;20038;-91
2024/02/16 02:52:46;;;;;;;4.00;1.35;;;10.70;99.90;;;;;;4966746;28;20033;-90
2024/02/16 02:55:11;;;;;;;4.00;1.48;;;10.80;99.90;;;;;;4948044;28;20050;-91
2024/02/16 02:57:37;;;;;;;4.65;1.52;;;10.80;99.90;;;;;;4959171;28;20026;-90
2024/02/16 03:00:06;;;;;;;6.15;1.38;;;10.90;99.90;;;;;;4965692;28;20063;-90
2024/02/16 03:02:32;;;;;;;6.45;1.65;;;10.80;99.90;;;;;;4961748;28;20372;-91
2024/02/16 03:04:57;;;;;;;3.58;1.33;;;10.90;99.90;;;;;;4952303;28;20035;-91
2024/02/16 03:07:23;;;;;;;6.10;1.30;;;10.90;99.90;;;;;;4961224;28;20027;-90
2024/02/16 03:09:49;;;;;;;4.82;1.30;;;10.90;99.90;;;;;;4959891;28;20034;-90
2024/02/16 03:12:15;;;;;;;4.28;1.20;;;10.90;99.90;;;;;;4960047;28;20034;-91
2024/02/16 03:14:40;;;;;;;4.45;1.33;;;10.90;99.90;;;;;;4957569;28;20019;-90
2024/02/16 03:17:06;;;;;;;5.38;1.20;;;10.90;99.90;;;;;;4969224;28;20040;-90
2024/02/16 03:19:31;;;;;;;3.03;1.38;;;10.90;99.90;;;;;;4958446;28;20122;-90
2024/02/16 03:21:57;;;;;;;4.97;2.10;;;10.90;99.90;;;;;;4960413;28;20114;-89
2024/02/16 03:24:23;;;;;;;5.03;1.45;;;10.90;99.90;;;;;;4959054;28;20501;-88
2024/02/16 03:26:48;;;;;;;6.78;1.92;;;10.90;99.90;;;;;;4958510;28;20130;-90
2024/02/16 03:29:14;;;;;;;5.57;1.38;;;10.90;99.90;;;;;;4958235;28;20082;-91
2024/02/16 03:31:40;;;;;;;5.07;1.48;;;10.90;99.90;;;;;;4959756;28;20066;-90
2024/02/16 03:34:05;;;;;;;4.68;1.25;;;10.80;99.90;;;;;;4955660;28;20031;-90
2024/02/16 03:36:31;;;;;;;6.10;1.70;;;10.80;99.90;;;;;;4959287;28;20026;-90
2024/02/16 03:38:56;;;;;;;2.42;1.10;;;10.80;99.90;;;;;;4955798;28;20030;-91
2024/02/16 03:41:23;;;;;;;3.83;1.55;;;10.80;99.90;;;;;;4958558;28;20106;-89
2024/02/16 03:43:50;;;;;;;4.78;1.25;;;10.80;99.90;;;;;;4956951;28;20030;-91
2024/02/16 03:46:15;;;;;;;3.00;1.25;;;10.80;99.90;;;;;;4955162;28;20041;-90
2024/02/16 03:48:41;;;;;;;2.95;1.17;;;10.80;99.90;;;;;;4961220;28;20026;-91
2024/02/16 03:51:07;;;;;;;4.68;1.52;;;10.80;99.90;;;;;;4961025;28;20027;-90
2024/02/16 03:53:33;;;;;;;3.90;1.42;;;10.80;99.90;;;;;;4960256;28;20033;-91
2024/02/16 03:55:59;;;;;;;3.13;1.58;;;10.80;99.90;;;;;;4959674;28;20125;-91
2024/02/16 03:58:25;;;;;;;4.63;1.38;;;10.80;99.90;;;;;;4958413;28;20046;-90
2024/02/16 04:00:52;;;;;;;4.28;1.42;;;10.80;99.90;;;;;;4976489;28;20041;-90
2024/02/16 04:03:18;;;;;;;3.90;1.40;;;10.80;99.90;;;;;;4958544;28;20031;-90
2024/02/16 04:05:44;;;;;;;3.92;1.45;;;10.80;99.90;;;;;;4956699;28;20035;-91
2024/02/16 04:08:10;;;;;;;4.50;1.50;;;10.80;99.90;;;;;;4958068;28;20077;-90
2024/02/16 04:10:36;;;;;;;6.82;1.70;;;10.80;99.90;;;;;;4955836;28;20028;-90
2024/02/16 04:13:02;;;;;;;4.30;1.23;;;10.80;99.90;;;;;;4959000;28;20424;-91
2024/02/16 04:15:28;;;;;;;4.63;1.50;;;10.90;99.90;;;;;;4958968;28;20027;-91
2024/02/16 04:17:54;;;;;;;5.90;1.70;;;10.90;99.90;;;;;;4960919;28;20022;-90
2024/02/16 04:20:20;;;;;;;4.15;1.30;;;11.00;99.90;;;;;;4962257;28;20035;-90
2024/02/16 04:22:46;;;;;;;4.70;1.83;;;11.00;99.90;;;;;;4959153;28;20446;-90
2024/02/16 04:25:11;;;;;;;4.80;1.40;;;11.00;99.90;;;;;;4958999;28;20047;-91
2024/02/16 04:27:37;;;;;;;11.27;2.55;;;11.10;99.90;;;;;;4959105;28;20054;-88
2024/02/16 04:30:04;;;;;;;3.10;1.42;;;11.10;99.90;;;;;;4958296;28;20038;-90
2024/02/16 04:32:31;;;;;;;6.38;2.00;;;11.10;99.90;;;;;;4958360;28;20058;-90
2024/02/16 04:34:57;;;;;;;4.13;1.40;;;11.10;99.90;;;;;;4955092;28;20031;-91
2024/02/16 04:37:23;;;;;;;4.00;1.30;;;11.10;99.90;;;;;;4960253;28;20030;-91
2024/02/16 04:39:49;;;;;;;3.83;1.77;;;11.10;99.90;;;;;;4955821;28;20050;-90
2024/02/16 04:42:16;;;;;;;4.88;1.42;;;11.20;99.90;;;;;;4966462;28;20027;-90
2024/02/16 04:44:41;;;;;;;3.53;1.45;;;11.20;99.90;;;;;;4975449;28;20031;-90
2024/02/16 04:47:07;;;;;;;5.78;1.90;;;11.30;99.90;;;;;;4967828;28;20042;-90
2024/02/16 04:49:33;;;;;;;4.15;1.70;;;11.30;99.90;;;;;;4961348;28;20023;-90
2024/02/16 04:51:59;;;;;;;4.65;1.80;;;11.40;99.90;;;;;;4958558;28;20475;-91
2024/02/16 04:54:24;;;;;;;4.63;1.55;;;11.40;99.90;;;;;;4961212;28;20023;-90
2024/02/16 04:56:50;;;;;;;4.38;1.40;;;11.40;99.90;;;;;;4960131;28;20051;-91
2024/02/16 04:59:19;;;;;;;6.35;1.70;;;11.50;99.90;;;;;;4962292;28;20085;-90
2024/02/16 05:01:45;;;;;;;5.00;1.40;;;11.50;99.90;;;;;;4962200;28;20121;-90
2024/02/16 05:04:13;;;;;;;2.63;1.10;;;11.50;99.90;;;;;;4961430;28;20063;-90
2024/02/16 05:06:40;;;;;;;3.55;1.80;;;11.50;99.90;;;;;;4948953;28;20093;-90
2024/02/16 05:09:05;;;;;;;3.88;1.30;;;11.50;99.90;;;;;;4961114;28;20390;-91
2024/02/16 05:11:32;;;;;;;6.15;1.63;;;11.50;99.90;;;;;;4963301;28;20026;-91
2024/02/16 05:13:58;;;;;;;5.05;1.90;;;11.50;99.90;;;;;;4958787;28;20096;-90
2024/02/16 05:16:23;;;;;;;5.55;1.92;;;11.50;99.90;;;;;;4955110;29;20082;-90
2024/02/16 05:18:49;;;;;;;6.57;1.73;;;11.50;99.90;;;;;;4956505;28;20038;-90
2024/02/16 05:21:15;;;;;;;7.40;1.42;;;11.50;99.90;;;;;;4956357;28;20122;-90
2024/02/16 05:23:40;;;;;;;3.83;1.65;;;11.50;99.90;;;;;;4956845;28;20526;-90
2024/02/16 05:26:06;;;;;;;4.25;1.63;;;11.50;99.90;;;;;;4961080;28;20077;-90
2024/02/16 05:28:32;;;;;;;5.18;2.38;;;11.50;99.90;;;;;;4957513;28;20027;-90
2024/02/16 05:31:03;;;;;;;3.53;2.00;;;11.50;99.90;;;;;;4957385;29;20020;-90
2024/02/16 05:33:29;;;;;;;4.93;2.20;;;11.50;99.90;;;;;;4959297;28;20035;-90
2024/02/16 05:35:58;;;;;;;6.75;2.67;;;11.50;99.90;;;;;;4950598;28;20027;-90
2024/02/16 05:38:40;;;;;;;5.18;1.75;;;11.50;99.90;;;;;;4961444;28;20065;-90
2024/02/16 05:41:06;;;;;;;3.83;1.87;;;11.50;99.90;;;;;;4988452;28;20046;-90
2024/02/16 05:43:33;;;;;;;3.17;1.10;;;11.50;99.90;;;;;;4996997;28;20321;-90
2024/02/16 05:45:59;;;;;;;3.60;1.45;;;11.50;99.90;;;;;;4995603;28;20123;-90
2024/02/16 05:48:26;;;;;;;4.78;1.48;;;11.50;99.90;;;;;;4989581;28;20027;-91
2024/02/16 05:50:52;;;;;;;4.90;1.60;;;11.50;99.90;;;;;;4995284;28;20052;-91
2024/02/16 05:53:18;;;;;;;6.85;1.90;;;11.50;99.90;;;;;;4996120;28;20022;-90
2024/02/16 05:55:44;;;;;;;5.35;1.52;;;11.50;99.90;;;;;;4996925;28;20026;-90
2024/02/16 05:58:12;;;;;;;5.68;1.70;;;11.50;99.90;;;;;;4996276;28;20125;-90
2024/02/16 06:00:37;;;;;;;4.00;1.70;;;11.50;99.90;;;;;;4996228;28;20397;-91
2024/02/16 06:03:03;;;;;;;4.40;2.03;;;11.50;99.90;;;;;;5018760;28;20117;-90
2024/02/16 06:05:28;;;;;;;4.53;1.50;;;11.50;99.90;;;;;;4995938;28;20398;-90
2024/02/16 06:07:56;;;;;;;2.78;1.17;;;11.40;99.90;;;;;;4996401;28;20026;-89
2024/02/16 06:10:22;;;;;;;4.88;1.52;;;11.40;99.90;;;;;;4996576;28;20026;-90
2024/02/16 06:12:48;;;;;;;4.22;1.88;;;11.50;99.90;;;;;;4995792;28;20027;-90
2024/02/16 06:15:14;;;;;;;4.22;1.83;;;11.40;99.90;;;;;;4996100;28;20574;-90
2024/02/16 06:17:40;;;;;;;6.22;1.98;;;11.50;99.90;;;;;;4996762;28;20053;-91
2024/02/16 06:20:09;;;;;;;4.65;1.35;;;11.40;99.90;;;;;;4995447;28;20030;-91
2024/02/16 06:22:35;;;;;;;3.72;1.58;;;11.40;99.90;;;;;;4996200;28;20026;-90
2024/02/16 06:25:01;;;;;;;7.68;1.70;;;11.50;99.90;;;;;;5012356;28;20114;-91
2024/02/16 06:27:26;;;;;;;4.80;1.65;;;11.50;99.90;;;;;;4990149;28;20097;-90
2024/02/16 06:29:52;;;;;;;4.38;1.73;;;11.50;99.90;;;;;;4994720;28;20026;-90
2024/02/16 06:32:18;;;;;;;5.15;1.90;;;11.50;99.90;;;;;;4995920;28;20046;-91
2024/02/16 06:34:45;;;;;;;4.63;1.60;;;11.60;99.90;;;;;;5010886;28;20073;-91
2024/02/16 06:37:11;;;;;;;6.88;1.73;;;11.60;99.90;;;;;;4995590;28;20061;-90
2024/02/16 06:39:36;;;;;;;3.17;1.30;;;11.60;99.90;;;;;;4992949;28;20046;-90
2024/02/16 06:42:02;;;;;;;3.33;1.40;;;11.60;99.90;;;;;;4991667;28;20049;-90
2024/02/16 06:44:29;;;;;;;5.97;1.65;;;11.60;99.90;;;;;;4995188;28;20022;-90
2024/02/16 06:46:54;;;;;;;4.07;1.80;;;11.60;99.90;;;;;;4992688;28;20031;-90
2024/02/16 06:49:20;;;;;;;3.25;1.30;;;11.60;99.90;;;;;;4992000;28;20034;-90
2024/02/16 06:51:45;;;;;;;5.00;1.45;;;11.60;99.90;;;;;;4996070;28;20027;-91
2024/02/16 06:54:11;;;;;;;5.70;1.90;;;11.50;99.90;;;;;;4995814;28;20113;-90
2024/02/16 06:56:37;;;;;;;3.80;1.70;;;11.60;99.90;;;;;;4994753;28;20022;-90
2024/02/16 06:59:03;;;;;;;4.93;1.48;;;11.60;99.90;;;;;;4998087;28;20054;-90
2024/02/16 07:01:29;;;;;;;4.70;2.05;;;11.60;99.90;;;;;;4995969;28;20027;-90
2024/02/16 07:03:55;;;;;;;6.40;2.00;;;11.70;99.90;;;;;;5002856;28;20018;-91
2024/02/16 07:06:20;;;;;;;8.48;1.92;;;11.70;99.90;;;;;;5005159;28;20042;-91
2024/02/16 07:08:46;;;;;;;5.97;2.03;;;11.70;99.90;;;;;;4996463;28;20463;-91
2024/02/16 07:11:12;;;;;;;5.60;1.50;;;11.70;99.90;;;;;;5014192;28;20033;-90
2024/02/16 07:13:39;;;;;;;3.95;1.65;;;11.80;99.90;;;;;;4996086;28;20041;-91
2024/02/16 07:16:09;;;;;;;4.80;1.20;;;11.80;99.90;;;;;;4992353;28;20037;-90
2024/02/16 07:18:34;;;;;;;3.97;1.70;;;11.80;99.90;;;;;;5011683;28;20034;-90
2024/02/16 07:21:01;;;;;;;4.88;1.40;;;11.80;99.90;;;;;;5001369;28;20060;-90
2024/02/16 07:23:26;;;;;;;5.35;1.52;;;11.90;99.90;;;;;;4989148;28;20041;-90
2024/02/16 07:25:56;;;;;;;3.60;1.42;;;11.90;99.90;;;;;;5017543;28;20046;-91
2024/02/16 07:28:22;;;;;;;4.07;1.67;;;11.90;99.90;;;;;;4991686;28;20026;-91
2024/02/16 07:30:48;;;;;;;5.40;1.75;;;12.00;99.90;;;;;;4985929;28;20030;-91
2024/02/16 07:33:13;;;;;;;3.67;1.50;;;12.00;99.90;;;;;;4991120;28;20045;-91
2024/02/16 07:35:39;;;;;;;5.05;1.60;;;12.10;99.90;;;;;;4994734;28;20054;-91
2024/02/16 07:38:05;;;;;;;3.85;1.92;;;12.10;99.90;;;;;;5012853;28;20053;-91
2024/02/16 07:40:31;;;;;;;2.85;1.30;;;12.20;99.90;;;;;;5012679;28;20042;-91
2024/02/16 07:42:57;;;;;;;2.65;1.30;;;12.20;99.90;;;;;;4991526;28;20502;-91
2024/02/16 07:45:23;;;;;;;4.60;2.05;;;12.30;99.90;;;;;;4992549;28;20039;-91
2024/02/16 07:47:48;;;;;;;8.30;1.63;;;12.30;99.90;;;;;;4994105;28;20221;-91
2024/02/16 07:50:19;;;;;;;7.55;1.60;;;12.40;99.90;;;;;;5010162;28;20034;-92
2024/02/16 07:52:44;;;;;;;5.90;1.55;;;12.40;99.90;;;;;;4989096;28;20014;-91
2024/02/16 07:55:10;;;;;;;4.10;1.80;;;12.50;99.90;;;;;;4995241;28;20091;-90
2024/02/16 07:57:36;;;;;;;4.25;1.77;;;12.50;99.90;;;;;;4995636;28;20031;-90
2024/02/16 08:00:03;;;;;;;8.00;1.88;;;12.60;99.90;;;;;;5007685;28;20055;-91
2024/02/16 08:02:29;;;;;;;4.03;1.63;;;12.60;99.90;;;;;;4994712;28;20034;-91
2024/02/16 08:04:54;;;;;;;4.88;1.50;;;12.70;99.90;;;;;;4993761;28;20034;-91
2024/02/16 08:07:20;;;;;;;5.15;1.50;;;12.80;99.90;;;;;;4995814;28;20019;-91
2024/02/16 08:09:49;;;;;;;5.63;1.67;;;12.80;99.90;;;;;;4988499;28;20528;-92
2024/02/16 08:12:15;;;;;;;3.65;1.52;;;12.90;99.90;;;;;;4999985;28;20486;-91
2024/02/16 08:14:41;;;;;;;3.45;1.55;;;12.90;99.90;;;;;;5001930;28;20057;-91
2024/02/16 08:17:07;;;;;;;4.22;1.55;;;13.00;99.90;;;;;;5000708;28;20030;-91
2024/02/16 08:19:34;;;;;;;5.57;1.90;;;13.00;99.90;;;;;;5003033;28;20033;-91
2024/02/16 08:22:01;;;;;;;4.03;1.38;;;13.10;99.90;;;;;;5014981;28;20034;-91
2024/02/16 08:24:27;;;;;;;4.65;1.35;;;13.10;99.90;;;;;;5001761;28;20117;-91
2024/02/16 08:26:53;;;;;;;3.88;1.50;;;13.20;99.90;;;;;;4987422;28;20058;-91
2024/02/16 08:29:20;;;;;;;5.53;1.73;;;13.20;99.90;;;;;;5001860;28;20026;-91
2024/02/16 08:31:47;;;;;;;4.57;1.63;;;13.20;99.90;;;;;;5002100;28;20027;-91
2024/02/16 08:34:14;;;;;;;3.45;1.40;;;13.30;99.90;;;;;;5001947;28;20039;-91
2024/02/16 08:36:46;;;;;;;4.28;1.80;;;13.30;99.90;;;;;;5001563;28;20026;-92
2024/02/16 08:39:13;;;;;;;;;;;13.30;99.90;;;;;;5000754;28;20410;-91
2024/02/16 08:41:38;;;;;;;8.45;2.03;;;13.30;99.90;;;;;;4985184;28;19925;-91
2024/02/16 08:44:04;;;;;;;5.32;1.48;;;13.30;99.90;;;;;;4976915;28;20026;-91
2024/02/16 08:46:30;;;;;;;5.03;1.92;;;13.30;99.90;;;;;;4978951;28;20058;-91
2024/02/16 08:48:56;;;;;;;13.18;3.53;;;13.40;99.90;;;;;;4984440;28;20025;-91
2024/02/16 08:51:21;;;;;;;3.83;1.80;;;13.40;99.90;;;;;;4984511;28;20038;-92
2024/02/16 08:53:47;;;;;;;5.53;2.00;;;13.40;99.90;;;;;;4981978;28;20035;-90
2024/02/16 08:56:13;;;;;;;8.73;2.20;;;13.40;99.90;;;;;;4982699;28;20101;-92
2024/02/16 08:58:40;;;;;;;5.53;1.88;;;13.50;99.90;;;;;;4982290;28;20491;-91
2024/02/16 09:01:05;;;;;;;8.02;1.92;;;13.40;99.90;;;;;;4982887;28;20066;-90
2024/02/16 09:03:38;;;;;;;4.97;2.08;;;13.50;99.90;;;;;;4986359;28;20031;-91
2024/02/16 09:06:04;;;;;;;3.38;1.95;;;13.40;99.90;;;;;;4984062;28;20553;-90
2024/02/16 09:08:33;;;;;;;6.43;1.80;;;13.40;99.90;;;;;;4986367;28;20573;-90
2024/02/16 09:10:59;;;;;;;3.97;1.83;;;13.40;99.90;;;;;;5004736;28;20086;-91
2024/02/16 09:13:25;;;;;;;6.28;2.25;;;13.50;99.90;;;;;;4971615;28;20053;-92
2024/02/16 09:15:54;;;;;;;7.10;2.40;;;13.50;99.90;;;;;;4981692;28;20023;-91
2024/02/16 09:18:19;;;;;;;5.95;2.30;;;13.50;99.90;;;;;;4986304;28;20037;-91
2024/02/16 09:20:45;;;;;;;4.57;2.47;;;13.50;99.90;;;;;;4985993;28;20030;-91
2024/02/16 09:23:11;;;;;;;7.00;2.45;;;13.50;99.90;;;;;;4986973;28;20029;-91
2024/02/16 09:25:39;;;;;;;4.90;2.00;;;13.50;99.90;;;;;;4997354;28;20046;-91
2024/02/16 09:28:07;;;;;;;8.15;2.85;;;13.50;99.90;;;;;;4997243;28;20018;-91
2024/02/16 09:30:33;;;;;;;9.13;2.95;;;13.50;99.90;;;;;;4988933;28;20073;-91
2024/02/16 09:32:58;;;;;;;9.18;2.47;;;13.50;99.90;;;;;;4987685;28;20023;-91
2024/02/16 09:35:24;;;;;;;6.57;2.40;;;13.60;99.90;;;;;;5003093;28;20058;-91
2024/02/16 09:37:50;;;;;;;4.53;2.65;;;13.60;99.90;;;;;;4986097;28;20054;-90
2024/02/16 09:40:18;;;;;;;8.63;3.30;;;13.60;99.90;;;;;;4987169;28;20070;-91
2024/02/16 09:42:49;;;;;;;7.90;2.85;;;13.60;99.90;;;;;;5000726;28;20030;-91
2024/02/16 09:45:15;;;;;;;7.20;2.92;;;13.70;99.90;;;;;;4999663;28;20030;-90
2024/02/16 09:47:42;;;;;;;6.28;2.47;;;13.70;99.90;;;;;;4999391;28;20038;-90
2024/02/16 09:50:09;;;;;;;5.72;2.70;;;13.70;99.90;;;;;;4999057;28;20073;-94
2024/02/16 09:52:36;;;;;;;6.57;2.42;;;13.70;99.90;;;;;;4983853;28;20034;-91
2024/02/16 09:55:02;;;;;;;9.00;3.65;;;13.80;99.90;;;;;;4996343;28;20034;-91
2024/02/16 09:57:28;;;;;;;5.93;3.00;;;13.80;99.90;;;;;;4992935;28;20041;-91
2024/02/16 09:59:53;;;;;;;7.57;2.90;;;13.80;99.90;;;;;;5015640;28;20026;-92
2024/02/16 10:02:19;;;;;;;5.95;3.00;;;13.90;99.90;;;;;;4999505;28;20035;-91
2024/02/16 10:04:45;;;;;;;6.85;2.55;;;13.90;99.90;;;;;;5000461;28;20033;-91
2024/02/16 10:07:11;;;;;;;5.75;3.25;;;13.90;99.90;;;;;;4991057;28;20035;-91
2024/02/16 10:09:38;;;;;;;7.55;2.95;;;13.90;99.90;;;;;;5001008;28;20042;-92
2024/02/16 10:12:06;;;;;;;7.90;2.92;;;13.90;99.90;;;;;;5012284;28;20034;-91
2024/02/16 10:14:32;;;;;;;6.43;2.95;;;13.90;99.90;;;;;;4984818;28;20030;-91
2024/02/16 10:17:06;;;;;;;10.00;3.38;;;13.90;99.90;;;;;;4998314;28;20023;-92
2024/02/16 10:19:40;;;;;;;7.72;3.70;;;13.90;99.90;;;;;;4996706;28;20031;-90
2024/02/16 10:22:10;;;;;;;7.18;3.03;;;13.90;99.90;;;;;;4998800;28;20498;-91
2024/02/16 10:25:18;;;;;;;8.82;3.00;;;13.90;99.90;;;;;;4995855;28;20030;-96
2024/02/16 10:27:49;;;;;;;7.45;3.30;;;13.90;99.90;;;;;;4999314;28;20030;-90
2024/02/16 10:30:14;;;;;;;6.68;2.75;;;13.80;99.90;;;;;;4997071;28;20042;-91
2024/02/16 10:32:40;;;;;;;6.53;3.63;;;13.80;99.90;;;;;;4999259;28;20114;-91
2024/02/16 10:35:08;;;;;;;12.80;3.63;;;13.80;99.90;;;;;;4996737;28;20042;-92
2024/02/16 10:37:35;;;;;;;6.18;2.95;;;13.80;99.90;;;;;;4996989;28;20026;-92
2024/02/16 10:40:01;;;;;;;7.53;3.00;;;13.70;99.90;;;;;;4997954;28;20084;-91
2024/02/16 10:42:30;;;;;;;8.00;3.60;;;13.70;99.90;;;;;;5014540;28;20026;-92
2024/02/16 10:44:57;;;;;;;5.53;2.95;;;13.80;99.90;;;;;;4998040;28;20098;-92
2024/02/16 10:47:23;;;;;;;11.27;3.40;;;13.80;99.90;;;;;;4997139;28;20038;-92
2024/02/16 10:49:49;;;;;;;7.93;3.53;;;13.80;99.90;;;;;;4996439;28;20053;-92
2024/02/16 10:52:16;;;;;;;7.45;3.72;;;13.70;99.90;;;;;;4994172;28;20038;-91
2024/02/16 10:54:43;;;;;;;10.02;4.53;;;13.70;99.90;;;;;;4996946;28;20449;-93
2024/02/16 10:57:09;;;;;;;9.57;4.70;;;13.70;99.90;;;;;;4997208;28;20056;-92
2024/02/16 10:59:45;;;;;;;8.85;4.43;;;13.60;99.90;;;;;;4997322;28;20030;-92
2024/02/16 11:02:11;;;;;;;7.57;4.28;;;13.60;99.90;;;;;;4995873;28;20479;-92
2024/02/16 11:04:39;;;;;;;12.48;5.45;;;13.60;99.90;;;;;;4995037;28;20037;-93
2024/02/16 11:07:11;;;;;;;7.57;5.05;;;13.60;99.90;;;;;;4996587;28;20030;-93
2024/02/16 11:09:39;;;;;;;13.20;5.60;;;13.50;99.90;;;;;;4995880;28;20049;-93
2024/02/16 11:12:08;;;;;;;9.40;4.93;;;13.40;99.90;;;;;;4994842;28;20034;-94
2024/02/16 11:14:42;;;;;;;9.80;5.13;;;13.40;99.90;;;;;;5012787;28;20025;-93
2024/02/16 11:17:20;;;;;;;10.52;5.03;;;13.40;99.90;;;;;;5013703;28;20044;-94
2024/02/16 11:19:47;;;;;;;9.35;5.25;;;13.30;99.90;;;;;;4993868;28;20133;-95
2024/02/16 11:22:20;;;;;;;11.43;5.90;;;13.30;99.90;;;;;;4998531;28;20030;-94
2024/02/16 11:24:50;;;;;;;9.75;5.65;;;13.20;99.90;;;;;;4993534;28;20018;-94
2024/02/16 11:27:19;;;;;;;13.07;5.93;;;13.20;99.90;;;;;;5000287;28;20117;-95
2024/02/16 11:29:45;;;;;;;14.32;5.80;;;13.10;99.90;;;;;;4999639;28;20102;-94
2024/02/16 11:32:11;;;;;;;9.73;6.60;;;13.10;99.90;;;;;;5000441;28;20057;-95
2024/02/16 11:34:39;;;;;;;16.27;7.97;;;13.00;99.90;;;;;;4999573;28;20026;-94
2024/02/16 11:37:06;;;;;;;14.80;7.00;;;13.00;99.90;;;;;;4999827;28;20034;-94
2024/02/16 11:39:35;;;;;;;13.27;7.20;;;13.00;99.90;;;;;;5002483;28;21708;-92
2024/02/16 11:42:05;;;;;;;12.25;7.82;;;12.90;99.90;;;;;;4996544;28;20113;-94
2024/02/16 11:44:32;;;;;;;13.15;7.30;;;12.90;99.90;;;;;;4986475;28;20053;-93
2024/02/16 11:46:58;;;;;;;14.95;8.40;;;12.80;99.90;;;;;;5003417;28;20069;-94
2024/02/16 11:49:24;;;;;;;17.15;9.25;;;12.80;99.90;;;;;;4994945;28;20022;-93
2024/02/16 11:51:50;;;;;;;15.68;8.93;;;12.80;99.90;;;;;;4979767;28;20414;-93
2024/02/16 11:54:16;;;;;;;13.95;9.00;;;12.80;99.90;;;;;;4980911;28;20019;-94
2024/02/16 11:56:51;;;;;;;14.13;8.70;;;12.80;99.90;;;;;;4982846;28;20028;-93
2024/02/16 11:59:17;;;;;;;13.75;8.45;;;12.80;99.90;;;;;;4981574;28;20101;-93
2024/02/16 12:01:54;;;;;;;13.75;8.70;;;12.80;99.90;;;;;;5006125;28;20081;-92
2024/02/16 12:04:30;;;;;;;14.98;9.70;;;12.80;99.90;;;;;;4981160;28;20030;-93
2024/02/16 12:07:00;;;;;;;14.23;8.85;;;12.80;99.90;;;;;;4977014;28;20133;-92
2024/02/16 12:09:26;;;;;;;13.57;9.48;;;12.80;99.90;;;;;;4978876;28;20027;-92
2024/02/16 12:11:53;;;;;;;16.38;9.98;;;12.80;99.90;;;;;;4979527;28;20046;-93
2024/02/16 12:14:21;;;;;;;13.25;8.50;;;12.80;99.90;;;;;;4997160;28;20050;-91
2024/02/16 12:16:57;;;;;;;11.75;9.32;;;12.80;99.90;;;;;;4977584;28;20026;-92
2024/02/16 12:19:23;;;;;;;11.77;8.63;;;12.80;99.90;;;;;;4974944;28;20035;-92
2024/02/16 12:21:52;;;;;;;13.13;8.32;;;12.80;99.90;;;;;;4978571;28;20003;-92
2024/02/16 12:24:19;;;;;;;8.95;7.70;;;12.80;99.90;;;;;;4978232;28;20030;-92
2024/02/16 12:26:44;;;;;;;13.50;8.25;;;12.70;99.90;;;;;;4972599;28;20030;-92
2024/02/16 12:29:13;;;;;;;7.75;6.65;;;12.70;99.90;;;;;;4979325;28;20023;-92
2024/02/16 12:31:44;;;;;;;10.93;7.45;;;12.70;99.90;;;;;;4975809;28;20037;-92
2024/02/16 12:34:10;;;;;;;9.40;7.18;;;12.70;99.90;;;;;;4978782;28;20061;-92
2024/02/16 12:36:38;;;;;;;10.23;7.20;;;12.60;99.90;;;;;;4976746;28;20773;-92
2024/02/16 12:39:03;;;;;;;13.27;7.15;;;12.60;99.90;;;;;;4976595;28;20125;-93
2024/02/16 12:41:34;;;;;;;10.35;8.18;;;12.60;99.90;;;;;;4990839;28;20458;-92
2024/02/16 12:43:59;;;;;;;9.80;6.88;;;12.50;99.90;;;;;;4995189;28;20036;-92